Time;durP1;ratioP1;P1;durP2;ratioP2;P2;SDS_P1;SDS_P2;PMS_P1;PMS_P2;Temp;Humidity;BMP_temperature;BMP_pressure;BME280_temperature;BME280_humidity;BME280_pressure;Samples;Min_cycle;Max_cycle;Signal;HPM_P1;HPM_P2
2024/01/11 00:00:30;;;;;;;49.17;26.77;;;;;;;0.88;48.86;98335.84;5048146;28;20199;-69
2024/01/11 00:02:56;;;;;;;54.67;26.70;;;;;;;0.79;48.74;98346.53;5050276;28;20739;-68
2024/01/11 00:05:21;;;;;;;51.33;25.37;;;;;;;0.76;48.64;98330.25;5045472;28;20669;-68
2024/01/11 00:07:47;;;;;;;48.20;27.60;;;;;;;0.65;48.63;98337.59;5032813;28;20184;-69
2024/01/11 00:10:13;;;;;;;47.03;26.07;;;;;;;0.58;49.47;98342.16;5039495;28;20180;-67
2024/01/11 00:12:38;;;;;;;51.13;26.47;;;;;;;0.71;48.47;98339.94;5054417;28;20968;-67
2024/01/11 00:15:04;;;;;;;50.93;27.17;;;;;;;0.68;48.86;98329.75;5052749;28;20221;-67
2024/01/11 00:17:30;;;;;;;53.53;26.63;;;;;;;0.57;49.21;98343.06;5049389;28;20200;-69
2024/01/11 00:19:55;;;;;;;52.00;26.23;;;;;;;0.52;48.91;98337.28;5011968;28;20674;-68
2024/01/11 00:22:20;;;;;;;48.17;26.30;;;;;;;0.69;48.83;98348.66;5040288;28;20660;-67
2024/01/11 00:24:46;;;;;;;48.30;24.77;;;;;;;0.54;49.10;98344.94;5016983;28;20195;-69
2024/01/11 00:27:11;;;;;;;54.80;26.47;;;;;;;0.62;48.87;98348.06;5058197;28;20181;-69
2024/01/11 00:29:37;;;;;;;53.10;27.20;;;;;;;0.52;49.00;98351.91;5059360;28;20602;-68
2024/01/11 00:32:02;;;;;;;45.10;25.33;;;;;;;0.61;48.86;98354.13;5055747;28;20224;-68
2024/01/11 00:34:28;;;;;;;46.70;25.30;;;;;;;0.61;48.34;98356.72;5047712;28;20226;-66
2024/01/11 00:36:53;;;;;;;51.20;25.53;;;;;;;0.67;48.13;98358.19;5048979;28;20257;-68
2024/01/11 00:39:19;;;;;;;51.33;25.40;;;;;;;0.73;48.36;98355.34;5052034;28;20298;-69
2024/01/11 00:41:44;;;;;;;56.87;27.60;;;;;;;0.59;48.39;98355.94;5057912;28;20175;-70
2024/01/11 00:44:10;;;;;;;45.57;26.40;;;;;;;0.61;48.60;98354.13;5058354;28;20206;-68
2024/01/11 00:46:36;;;;;;;57.77;27.57;;;;;;;0.77;48.73;98357.75;5052363;28;20313;-68
2024/01/11 00:49:02;;;;;;;50.30;26.47;;;;;;;0.70;48.57;98358.91;5046246;28;20232;-68
2024/01/11 00:51:27;;;;;;;58.90;29.53;;;;;;;0.51;48.77;98357.94;5057093;28;20433;-68
2024/01/11 00:53:52;;;;;;;54.30;27.30;;;;;;;0.41;49.25;98350.59;5052877;28;20195;-71
2024/01/11 00:56:19;;;;;;;52.47;25.27;;;;;;;0.59;48.84;98351.59;5050417;28;20214;-68
2024/01/11 00:58:45;;;;;;;59.87;26.57;;;;;;;0.44;48.86;98342.72;5049464;28;20204;-69
2024/01/11 01:01:10;;;;;;;49.37;25.23;;;;;;;0.43;49.12;98343.63;5048137;28;20434;-69
2024/01/11 01:03:36;;;;;;;51.10;26.90;;;;;;;0.49;48.95;98347.72;5047445;28;20437;-68
2024/01/11 01:06:02;;;;;;;53.73;26.70;;;;;;;0.61;48.49;98343.81;5055989;28;20206;-69
2024/01/11 01:08:28;;;;;;;49.53;26.53;;;;;;;0.37;48.40;98341.31;5052104;28;20179;-69
2024/01/11 01:10:53;;;;;;;53.83;26.40;;;;;;;0.52;48.72;98350.16;5055381;28;20413;-69
2024/01/11 01:13:18;;;;;;;51.63;26.73;;;;;;;0.57;48.79;98355.16;5060586;28;20193;-68
2024/01/11 01:15:44;;;;;;;46.63;25.27;;;;;;;0.42;48.51;98361.75;5052351;28;20198;-70
2024/01/11 01:18:09;;;;;;;51.90;27.30;;;;;;;0.25;48.59;98362.41;5045126;28;20210;-69
2024/01/11 01:20:35;;;;;;;51.47;26.30;;;;;;;0.18;49.23;98366.13;5049621;28;20203;-70
2024/01/11 01:23:02;;;;;;;44.03;24.50;;;;;;;0.32;48.53;98361.28;5046179;28;20291;-67
2024/01/11 01:25:27;;;;;;;51.23;26.40;;;;;;;0.37;48.51;98361.94;5055626;28;20449;-68
2024/01/11 01:27:53;;;;;;;45.00;24.10;;;;;;;0.50;48.77;98356.31;5060105;28;20187;-69
2024/01/11 01:30:18;;;;;;;59.33;26.87;;;;;;;0.49;48.64;98350.28;5040150;28;20207;-70
2024/01/11 01:32:43;;;;;;;56.03;28.47;;;;;;;0.51;48.50;98353.66;5052471;28;20331;-69
2024/01/11 01:35:09;;;;;;;53.83;27.60;;;;;;;0.54;49.15;98353.53;5047861;28;20248;-68
2024/01/11 01:37:34;;;;;;;53.23;27.30;;;;;;;0.59;48.93;98345.59;5048197;28;20187;-68
2024/01/11 01:40:00;;;;;;;56.43;26.23;;;;;;;0.57;48.85;98347.41;5050714;28;20206;-69
2024/01/11 01:42:25;;;;;;;47.40;26.30;;;;;;;0.71;48.20;98363.19;5059234;28;20684;-68
2024/01/11 01:44:51;;;;;;;50.53;24.37;;;;;;;0.71;48.12;98359.75;5055837;28;20230;-71
2024/01/11 01:47:16;;;;;;;53.87;27.23;;;;;;;0.62;48.29;98371.28;5044712;28;20273;-70
2024/01/11 01:49:43;;;;;;;48.23;26.33;;;;;;;0.48;47.88;98369.25;5045417;28;20723;-68
2024/01/11 01:52:09;;;;;;;57.87;26.57;;;;;;;0.33;48.39;98375.84;5038452;28;20183;-67
2024/01/11 01:54:35;;;;;;;49.30;26.80;;;;;;;0.18;48.96;98376.44;5044418;28;20432;-69
2024/01/11 01:57:00;;;;;;;49.00;25.90;;;;;;;0.26;48.78;98380.41;5059639;28;20420;-68
2024/01/11 01:59:27;;;;;;;51.83;27.67;;;;;;;0.36;48.74;98380.03;5046508;28;20207;-69
2024/01/11 02:01:53;;;;;;;51.23;26.13;;;;;;;0.20;48.58;98390.94;5042607;28;20559;-70
2024/01/11 02:04:19;;;;;;;46.30;25.40;;;;;;;0.13;49.47;98392.91;5051100;28;20452;-69
2024/01/11 02:06:46;;;;;;;48.60;27.33;;;;;;;0.15;49.57;98398.03;5050710;28;20449;-69
2024/01/11 02:09:11;;;;;;;47.70;25.60;;;;;;;0.26;49.40;98392.44;5050400;28;20179;-69
2024/01/11 02:11:37;;;;;;;48.53;26.20;;;;;;;0.18;48.80;98391.91;5051184;28;20422;-68
2024/01/11 02:14:03;;;;;;;47.50;25.90;;;;;;;0.08;48.96;98389.69;5052550;28;20221;-68
2024/01/11 02:16:28;;;;;;;48.07;26.07;;;;;;;0.12;49.31;98387.81;5047614;28;20195;-68
2024/01/11 02:18:54;;;;;;;52.77;26.43;;;;;;;0.21;49.09;98389.22;5047676;28;20273;-67
2024/01/11 02:21:20;;;;;;;49.07;26.13;;;;;;;0.31;48.79;98387.97;5053773;28;20618;-70
2024/01/11 02:24:12;;;;;;;59.10;28.17;;;;;;;0.32;48.46;98383.63;5048561;28;20584;-70
2024/01/11 02:26:58;;;;;;;53.80;26.00;;;;;;;0.35;48.61;98378.34;5046249;28;20801;-68
2024/01/11 02:29:23;;;;;;;51.40;26.03;;;;;;;0.29;48.76;98394.91;5052056;28;20784;-70
2024/01/11 02:31:49;;;;;;;53.00;27.10;;;;;;;0.43;48.82;98387.47;5040673;28;20458;-69
2024/01/11 02:34:14;;;;;;;50.57;25.97;;;;;;;0.52;48.18;98382.84;5043013;28;20199;-68
2024/01/11 02:36:40;;;;;;;47.37;25.57;;;;;;;0.33;48.06;98385.31;5047689;28;20202;-68
2024/01/11 02:39:05;;;;;;;53.23;24.47;;;;;;;0.35;48.23;98383.53;5053887;28;20289;-68
2024/01/11 02:41:32;;;;;;;49.50;24.77;;;;;;;0.28;48.41;98388.06;5052198;28;20785;-70
2024/01/11 02:43:58;;;;;;;46.67;25.27;;;;;;;0.30;48.03;98391.44;5041611;28;20182;-69
2024/01/11 02:46:23;;;;;;;51.10;27.23;;;;;;;0.21;48.53;98391.78;5058596;28;20428;-70
2024/01/11 02:48:49;;;;;;;51.77;26.00;;;;;;;0.10;48.71;98389.59;5057302;28;20313;-70
2024/01/11 02:51:14;;;;;;;51.07;24.50;;;;;;;-0.01;48.95;98393.44;5043741;28;20225;-69
2024/01/11 02:53:39;;;;;;;50.60;26.00;;;;;;;-0.02;49.11;98385.78;5054483;28;20182;-68
2024/01/11 02:56:05;;;;;;;47.83;24.50;;;;;;;-0.29;49.18;98385.03;5065362;28;20197;-68
2024/01/11 02:58:30;;;;;;;50.03;24.87;;;;;;;-0.14;49.37;98388.81;5053877;28;20617;-69
2024/01/11 03:00:56;;;;;;;48.67;25.40;;;;;;;-0.16;49.01;98394.84;5057391;28;20207;-69
2024/01/11 03:03:21;;;;;;;46.33;25.23;;;;;;;-0.22;49.60;98387.31;5042718;28;20179;-69
2024/01/11 03:05:47;;;;;;;50.30;25.37;;;;;;;-0.19;49.23;98378.66;5051451;28;20199;-68
2024/01/11 03:08:12;;;;;;;52.27;25.77;;;;;;;-0.09;49.08;98372.28;5051796;28;20179;-68
2024/01/11 03:10:40;;;;;;;46.70;25.30;;;;;;;0.06;49.08;98373.41;5050453;28;20206;-66
2024/01/11 03:13:07;;;;;;;50.20;25.60;;;;;;;0.05;48.64;98376.91;5054890;28;20278;-66
2024/01/11 03:15:32;;;;;;;50.60;26.83;;;;;;;-0.01;49.16;98372.00;5050555;28;20443;-69
2024/01/11 03:17:58;;;;;;;56.20;27.67;;;;;;;-0.06;49.44;98368.72;5056896;28;20934;-69
2024/01/11 03:20:24;;;;;;;45.37;24.57;;;;;;;-0.10;49.11;98362.84;5050753;28;20767;-69
2024/01/11 03:22:53;;;;;;;53.20;26.17;;;;;;;-0.02;48.90;98362.56;5045382;28;20254;-69
2024/01/11 03:25:18;;;;;;;49.10;25.17;;;;;;;-0.01;49.10;98362.50;5047450;28;20957;-69
2024/01/11 03:27:44;;;;;;;50.63;25.10;;;;;;;0.03;48.92;98357.25;5054110;28;20420;-69
2024/01/11 03:30:10;;;;;;;53.73;24.60;;;;;;;-0.07;48.79;98357.59;5044047;28;20219;-67
2024/01/11 03:32:35;;;;;;;49.43;25.50;;;;;;;-0.20;49.36;98359.78;5033944;28;20171;-69
2024/01/11 03:35:00;;;;;;;51.47;25.93;;;;;;;-0.23;49.22;98365.03;5050620;28;20230;-70
2024/01/11 03:37:26;;;;;;;49.57;24.53;;;;;;;-0.24;48.72;98368.50;5050219;28;20183;-69
2024/01/11 03:39:51;;;;;;;43.30;22.93;;;;;;;-0.38;49.45;98363.03;5043850;28;20211;-69
2024/01/11 03:42:17;;;;;;;42.50;24.00;;;;;;;-0.35;49.57;98362.91;5054270;28;20227;-68
2024/01/11 03:44:42;;;;;;;52.00;25.87;;;;;;;-0.25;48.77;98363.41;5049441;28;20217;-69
2024/01/11 03:47:08;;;;;;;40.30;22.67;;;;;;;-0.24;49.00;98358.19;5058381;28;20179;-69
2024/01/11 03:49:33;;;;;;;49.10;25.00;;;;;;;-0.09;48.81;98358.53;5046026;28;20175;-68
2024/01/11 03:51:58;;;;;;;43.77;23.97;;;;;;;-0.14;48.16;98356.13;5049345;28;20193;-68
2024/01/11 03:54:24;;;;;;;45.57;25.03;;;;;;;-0.23;48.67;98352.13;5049296;28;20241;-69
2024/01/11 03:56:49;;;;;;;48.37;25.53;;;;;;;-0.23;48.92;98356.47;5048106;28;20218;-69
2024/01/11 03:59:15;;;;;;;51.23;25.30;;;;;;;-0.18;48.83;98355.41;5037245;28;20211;-69
2024/01/11 04:01:41;;;;;;;52.20;25.10;;;;;;;-0.24;48.51;98362.53;5062390;28;20269;-70
2024/01/11 04:04:06;;;;;;;47.83;24.80;;;;;;;-0.33;48.82;98361.97;5037170;28;20537;-68
2024/01/11 04:06:32;;;;;;;48.17;24.70;;;;;;;-0.43;48.62;98354.63;5032847;28;20426;-69
2024/01/11 04:08:57;;;;;;;48.60;25.53;;;;;;;-0.59;49.39;98350.00;5058318;28;20294;-69
2024/01/11 04:11:23;;;;;;;52.27;26.00;;;;;;;-0.55;49.70;98354.16;5050461;28;20183;-67
2024/01/11 04:13:49;;;;;;;52.37;24.87;;;;;;;-0.52;49.34;98360.94;5041909;28;20668;-70
2024/01/11 04:16:14;;;;;;;50.43;24.50;;;;;;;-0.45;49.15;98364.13;5057881;28;20432;-68
2024/01/11 04:18:39;;;;;;;51.13;25.60;;;;;;;-0.31;49.42;98355.00;5046404;28;20662;-68
2024/01/11 04:21:05;;;;;;;48.30;25.43;;;;;;;-0.24;48.66;98355.63;5056018;28;20271;-68
2024/01/11 04:23:30;;;;;;;50.70;25.00;;;;;;;-0.20;48.91;98362.34;5041455;28;20187;-67
2024/01/11 04:25:56;;;;;;;52.60;26.00;;;;;;;-0.08;48.40;98349.91;5053721;28;20198;-70
2024/01/11 04:28:21;;;;;;;50.90;25.13;;;;;;;-0.21;48.63;98358.09;5049144;28;20253;-69
2024/01/11 04:30:47;;;;;;;47.33;24.00;;;;;;;-0.23;49.06;98347.00;5037824;28;20181;-67
2024/01/11 04:33:12;;;;;;;45.00;24.50;;;;;;;-0.23;48.83;98353.91;5052697;28;20266;-68
2024/01/11 04:35:37;;;;;;;46.67;25.20;;;;;;;-0.31;49.01;98346.44;5056922;28;20313;-69
2024/01/11 04:38:03;;;;;;;51.70;25.83;;;;;;;-0.27;48.54;98353.16;5050689;28;20270;-68
2024/01/11 04:40:28;;;;;;;53.63;25.33;;;;;;;-0.40;49.03;98354.50;5046150;28;20710;-70
2024/01/11 04:42:54;;;;;;;46.47;23.73;;;;;;;-0.40;49.10;98354.50;5041232;28;20202;-71
2024/01/11 04:45:19;;;;;;;47.37;25.73;;;;;;;-0.41;48.95;98352.84;5041391;28;20209;-70
2024/01/11 04:47:45;;;;;;;54.73;25.87;;;;;;;-0.51;48.83;98348.00;5048789;28;20664;-71
2024/01/11 04:50:10;;;;;;;48.20;24.00;;;;;;;-0.37;48.63;98349.22;5048707;28;20254;-69
2024/01/11 04:52:36;;;;;;;47.27;25.47;;;;;;;-0.39;48.40;98357.03;5037933;28;20213;-70
2024/01/11 04:55:01;;;;;;;48.60;25.13;;;;;;;-0.35;48.39;98350.00;5048198;28;20680;-67
2024/01/11 04:57:27;;;;;;;47.97;25.23;;;;;;;-0.50;48.73;98349.66;5039145;28;20236;-70
2024/01/11 04:59:53;;;;;;;49.43;26.33;;;;;;;-0.60;48.93;98348.31;5047258;28;20209;-73
2024/01/11 05:02:20;;;;;;;53.17;25.40;;;;;;;-0.53;48.78;98341.22;5043216;28;20201;-68
2024/01/11 05:04:46;;;;;;;50.30;25.60;;;;;;;-0.51;49.44;98337.72;5045035;28;20214;-69
2024/01/11 05:07:11;;;;;;;47.70;25.03;;;;;;;-0.52;49.16;98348.91;5035925;28;20428;-67
2024/01/11 05:09:37;;;;;;;51.07;25.80;;;;;;;-0.55;48.71;98346.44;5053151;28;20260;-68
2024/01/11 05:12:02;;;;;;;46.50;25.20;;;;;;;-0.66;49.06;98351.97;5048621;28;20213;-69
2024/01/11 05:14:28;;;;;;;50.47;24.50;;;;;;;-0.70;48.87;98350.41;5032738;28;20265;-68
2024/01/11 05:16:53;;;;;;;49.00;25.10;;;;;;;-0.75;48.99;98359.16;5045751;28;20210;-69
2024/01/11 05:19:19;;;;;;;61.03;24.63;;;;;;;-0.83;49.66;98362.03;5055332;28;20207;-69
2024/01/11 05:21:45;;;;;;;43.80;23.97;;;;;;;-0.85;49.67;98364.63;5050082;28;20186;-69
2024/01/11 05:24:10;;;;;;;49.03;26.13;;;;;;;-0.80;49.74;98373.03;5047446;28;20179;-67
2024/01/11 05:26:35;;;;;;;51.67;26.00;;;;;;;-0.68;49.41;98374.34;5049304;28;20249;-70
2024/01/11 05:29:04;;;;;;;51.87;25.43;;;;;;;-0.74;48.85;98378.88;5040325;28;20191;-67
2024/01/11 05:31:29;;;;;;;58.60;25.63;;;;;;;-0.86;49.93;98378.38;5035404;28;20207;-68
2024/01/11 05:33:54;;;;;;;81.73;37.83;;;;;;;-0.69;49.40;98384.72;5052778;28;20508;-68
2024/01/11 05:36:20;;;;;;;77.57;34.87;;;;;;;-0.62;49.41;98381.00;5058229;28;20197;-68
2024/01/11 05:38:47;;;;;;;60.20;31.30;;;;;;;-0.84;49.65;98386.91;5046284;28;20202;-69
2024/01/11 05:41:12;;;;;;;52.97;27.63;;;;;;;-0.91;50.22;98380.28;5054623;28;21091;-67
2024/01/11 05:43:39;;;;;;;56.23;27.37;;;;;;;-0.79;49.32;98390.19;5046774;28;20228;-68
2024/01/11 05:46:04;;;;;;;46.50;24.63;;;;;;;-0.78;49.65;98384.13;5047855;28;20227;-69
2024/01/11 05:48:30;;;;;;;54.93;27.00;;;;;;;-0.80;49.75;98388.50;5056374;28;20442;-69
2024/01/11 05:50:55;;;;;;;52.00;26.93;;;;;;;-0.80;50.23;98388.50;5045603;28;20696;-67
2024/01/11 05:53:21;;;;;;;51.23;25.63;;;;;;;-0.77;49.84;98397.84;5055764;28;20171;-68
2024/01/11 05:55:47;;;;;;;50.47;26.43;;;;;;;-0.72;49.71;98395.09;5053007;28;20286;-67
2024/01/11 05:58:12;;;;;;;52.53;28.77;;;;;;;-0.60;49.43;98399.84;5048205;28;20676;-68
2024/01/11 06:00:38;;;;;;;57.90;30.10;;;;;;;-0.88;49.60;98405.91;5043951;28;20462;-67
2024/01/11 06:03:04;;;;;;;57.43;28.40;;;;;;;-0.79;50.13;98415.94;5053707;28;20202;-69
2024/01/11 06:05:29;;;;;;;56.47;29.40;;;;;;;-0.57;49.65;98410.03;5051700;28;20199;-68
2024/01/11 06:07:55;;;;;;;62.23;29.87;;;;;;;-0.56;49.06;98416.00;5051028;28;20434;-68
2024/01/11 06:10:21;;;;;;;61.83;30.63;;;;;;;-0.66;49.53;98425.81;5054756;28;20231;-67
2024/01/11 06:12:46;;;;;;;64.30;30.70;;;;;;;-0.74;48.87;98418.34;5047051;28;20203;-68
2024/01/11 06:15:12;;;;;;;60.20;29.80;;;;;;;-0.81;49.17;98409.97;5050012;28;20656;-68
2024/01/11 06:17:37;;;;;;;62.73;30.17;;;;;;;-0.72;49.45;98415.69;5054201;28;20189;-68
2024/01/11 06:20:03;;;;;;;60.57;29.67;;;;;;;-0.81;49.40;98407.41;5047679;28;20202;-68
2024/01/11 06:22:29;;;;;;;67.57;29.93;;;;;;;-0.91;49.38;98421.47;5048836;28;20592;-68
2024/01/11 06:24:54;;;;;;;55.57;28.70;;;;;;;-1.00;49.72;98422.63;5044674;28;20480;-67
2024/01/11 06:27:19;;;;;;;53.03;27.70;;;;;;;-0.97;49.38;98417.38;5047665;28;20769;-68
2024/01/11 06:29:45;;;;;;;51.07;26.60;;;;;;;-0.89;49.38;98411.97;5045859;28;20717;-68
2024/01/11 06:32:11;;;;;;;51.67;27.13;;;;;;;-0.87;49.43;98410.16;5040727;28;20187;-68
2024/01/11 06:34:36;;;;;;;53.70;28.57;;;;;;;-0.89;49.41;98417.13;5054634;28;20205;-68
2024/01/11 06:37:02;;;;;;;55.13;26.10;;;;;;;-0.81;49.52;98415.13;5039708;28;20657;-68
2024/01/11 06:39:28;;;;;;;49.30;25.57;;;;;;;-0.73;49.28;98417.44;5043870;28;20214;-67
2024/01/11 06:41:54;;;;;;;61.90;28.40;;;;;;;-0.79;48.90;98415.06;5048013;28;20433;-68
2024/01/11 06:44:19;;;;;;;59.83;28.23;;;;;;;-0.80;49.35;98414.25;5053156;28;20279;-68
2024/01/11 06:46:45;;;;;;;52.20;26.60;;;;;;;-0.73;49.24;98414.88;5050284;28;20186;-67
2024/01/11 06:49:11;;;;;;;55.97;28.37;;;;;;;-0.81;49.10;98409.97;5046621;28;20183;-67
2024/01/11 06:51:37;;;;;;;64.73;27.27;;;;;;;-0.84;49.17;98415.22;5055514;28;20487;-68
2024/01/11 06:54:02;;;;;;;55.67;27.90;;;;;;;-0.96;49.07;98419.06;5054556;28;20929;-67
2024/01/11 06:56:27;;;;;;;59.83;29.30;;;;;;;-0.82;49.19;98431.47;5059972;28;20594;-67
2024/01/11 06:58:54;;;;;;;59.70;30.37;;;;;;;-0.83;49.20;98429.78;5052169;28;20193;-70
2024/01/11 07:01:20;;;;;;;52.73;28.07;;;;;;;-0.71;49.24;98430.25;5045734;28;20283;-70
2024/01/11 07:03:45;;;;;;;61.93;29.87;;;;;;;-0.68;48.48;98443.03;5041486;28;20518;-69
2024/01/11 07:06:11;;;;;;;60.73;31.60;;;;;;;-0.87;48.94;98435.91;5038369;28;20199;-65
2024/01/11 07:08:36;;;;;;;64.87;34.70;;;;;;;-0.91;49.23;98439.50;5035741;28;20175;-69
2024/01/11 07:11:02;;;;;;;64.17;33.00;;;;;;;-0.98;49.00;98438.00;5051111;28;20206;-69
2024/01/11 07:13:33;;;;;;;65.63;32.80;;;;;;;-0.88;49.07;98446.28;5042934;28;20180;-68
2024/01/11 07:15:59;;;;;;;63.77;33.33;;;;;;;-0.99;49.31;98457.75;5056620;28;20447;-68
2024/01/11 07:18:28;;;;;;;71.63;33.97;;;;;;;-0.86;49.45;98460.78;5067598;28;20448;-70
2024/01/11 07:20:56;;;;;;;65.27;33.57;;;;;;;-1.08;49.02;98460.66;5070667;28;20504;-69
2024/01/11 07:23:21;;;;;;;62.10;31.80;;;;;;;-1.01;49.03;98456.13;5049005;28;20422;-71
2024/01/11 07:25:47;;;;;;;57.67;30.83;;;;;;;-0.95;49.43;98450.78;5068631;28;20453;-68
2024/01/11 07:28:12;;;;;;;69.73;30.73;;;;;;;-0.95;49.60;98453.34;5048328;28;20183;-68
2024/01/11 07:30:38;;;;;;;69.07;32.40;;;;;;;-0.84;49.04;98443.53;5049082;28;20578;-71
2024/01/11 07:33:04;;;;;;;68.50;31.43;;;;;;;-1.04;49.77;98445.94;5047832;28;20202;-68
2024/01/11 07:35:29;;;;;;;59.40;31.30;;;;;;;-1.13;50.20;98445.31;5057629;28;20221;-69
2024/01/11 07:37:56;;;;;;;65.03;31.23;;;;;;;-1.02;50.22;98449.31;5052318;28;20450;-69
2024/01/11 07:40:21;;;;;;;62.93;32.57;;;;;;;-0.93;49.91;98449.00;5050730;28;20273;-69
2024/01/11 07:42:47;;;;;;;62.77;32.17;;;;;;;-1.05;50.33;98454.56;5049604;28;20409;-69
2024/01/11 07:45:13;;;;;;;58.93;31.20;;;;;;;-0.91;50.52;98467.81;5042643;28;20695;-69
2024/01/11 07:47:42;;;;;;;65.33;32.27;;;;;;;-0.85;49.32;98470.19;5047766;28;20430;-69
2024/01/11 07:50:09;;;;;;;69.10;32.30;;;;;;;-0.99;49.76;98482.66;5051290;28;20209;-67
2024/01/11 07:52:36;;;;;;;62.13;30.50;;;;;;;-1.36;49.88;98486.38;5052954;28;20456;-69
2024/01/11 07:55:07;;;;;;;52.50;26.97;;;;;;;-1.24;49.84;98478.28;5044303;28;20469;-69
2024/01/11 07:57:36;;;;;;;50.23;26.50;;;;;;;-1.15;49.70;98474.56;5047216;28;20475;-68
2024/01/11 08:00:02;;;;;;;49.30;26.50;;;;;;;-1.09;49.95;98474.41;5040757;28;20508;-68
2024/01/11 08:02:28;;;;;;;55.50;29.37;;;;;;;-0.89;50.06;98491.78;5048025;28;20424;-69
2024/01/11 08:04:53;;;;;;;58.90;29.30;;;;;;;-0.66;50.56;98497.91;5048009;28;21002;-70
2024/01/11 08:07:19;;;;;;;54.63;28.80;;;;;;;-0.24;49.67;98499.94;5040487;28;20270;-68
2024/01/11 08:09:47;;;;;;;65.97;32.23;;;;;;;0.20;48.47;98506.16;5044607;28;20198;-69
2024/01/11 08:12:16;;;;;;;62.67;32.47;;;;;;;0.29;48.31;98508.41;5030251;28;20202;-68
2024/01/11 08:14:46;;;;;;;55.50;28.80;;;;;;;0.64;47.78;98519.13;5048214;28;20441;-68
2024/01/11 08:17:11;;;;;;;63.13;30.53;;;;;;;0.65;46.74;98518.25;5036848;28;20541;-68
2024/01/11 08:19:38;;;;;;;61.07;29.90;;;;;;;0.79;46.74;98514.31;5038453;28;21111;-68
2024/01/11 08:22:03;;;;;;;54.37;29.03;;;;;;;1.10;45.67;98513.13;5032506;28;20519;-67
2024/01/11 08:24:29;;;;;;;57.10;29.23;;;;;;;1.14;45.15;98518.09;5039386;28;20439;-68
2024/01/11 08:26:55;;;;;;;61.83;32.57;;;;;;;1.29;46.43;98511.47;5042082;28;20190;-67
2024/01/11 08:29:20;;;;;;;58.50;31.90;;;;;;;1.44;45.96;98527.25;5044450;28;20198;-69
2024/01/11 08:31:46;;;;;;;57.57;31.43;;;;;;;1.75;45.86;98533.75;5053964;28;20529;-69
2024/01/11 08:34:11;;;;;;;62.50;32.37;;;;;;;2.04;45.32;98534.25;5044346;28;20202;-69
2024/01/11 08:36:38;;;;;;;66.07;33.70;;;;;;;2.34;45.02;98534.66;5034303;28;20190;-68
2024/01/11 08:39:07;;;;;;;65.80;33.57;;;;;;;2.53;44.28;98532.06;5041821;28;20683;-67
2024/01/11 08:41:34;;;;;;;57.50;32.43;;;;;;;2.96;43.95;98523.25;5035741;28;20460;-68
2024/01/11 08:44:00;;;;;;;63.63;32.73;;;;;;;3.17;44.57;98524.81;5041719;28;20418;-67
2024/01/11 08:46:26;;;;;;;71.77;35.10;;;;;;;3.13;43.91;98525.03;5039409;28;21098;-69
2024/01/11 08:48:52;;;;;;;71.73;35.40;;;;;;;3.46;43.59;98521.75;5051272;28;20184;-68
2024/01/11 08:51:18;;;;;;;61.27;35.33;;;;;;;3.65;43.50;98522.50;5038850;28;20441;-68
2024/01/11 08:53:43;;;;;;;66.50;35.00;;;;;;;3.69;43.56;98533.56;5037269;28;20419;-68
2024/01/11 08:56:09;;;;;;;65.90;34.93;;;;;;;3.92;43.34;98532.41;5039946;28;20212;-68
2024/01/11 08:58:34;;;;;;;58.33;34.47;;;;;;;4.20;43.04;98527.56;5041798;28;20278;-68
2024/01/11 09:00:59;;;;;;;67.40;34.03;;;;;;;4.34;42.76;98519.88;5039894;28;20226;-67
2024/01/11 09:03:25;;;;;;;62.33;34.40;;;;;;;4.56;42.88;98523.94;5045440;28;20176;-68
2024/01/11 09:05:50;;;;;;;61.00;32.27;;;;;;;4.82;41.85;98509.56;5045723;28;20215;-68
2024/01/11 09:08:16;;;;;;;69.93;37.80;;;;;;;4.58;41.36;98522.09;5037489;28;20705;-69
2024/01/11 09:10:41;;;;;;;63.73;35.83;;;;;;;4.59;42.28;98521.19;5043138;28;20251;-68
2024/01/11 09:13:07;;;;;;;62.13;35.57;;;;;;;4.79;42.45;98508.91;5046848;28;20182;-69
2024/01/11 09:15:33;;;;;;;60.30;34.00;;;;;;;4.82;41.83;98513.91;5037202;28;20748;-69
2024/01/11 09:18:00;;;;;;;58.77;34.90;;;;;;;4.68;41.76;98532.84;5030395;28;20218;-70
2024/01/11 09:20:25;;;;;;;67.83;36.30;;;;;;;5.01;41.71;98527.56;5045516;28;20523;-69
2024/01/11 09:22:51;;;;;;;68.70;36.07;;;;;;;5.29;41.79;98538.19;5035489;28;20512;-69
2024/01/11 09:25:16;;;;;;;61.17;35.23;;;;;;;5.27;40.99;98527.03;5040951;28;20203;-68
2024/01/11 09:27:41;;;;;;;61.77;34.50;;;;;;;5.54;41.10;98506.44;5038170;28;20570;-68
2024/01/11 09:30:08;;;;;;;64.43;35.70;;;;;;;5.64;40.77;98512.78;4995532;28;20275;-69
2024/01/11 09:32:34;;;;;;;66.50;36.07;;;;;;;5.88;40.00;98519.22;5038299;28;20656;-68
2024/01/11 09:34:59;;;;;;;63.47;34.97;;;;;;;6.18;39.59;98527.00;5058406;28;20459;-68
2024/01/11 09:37:25;;;;;;;61.20;34.40;;;;;;;6.41;39.26;98532.59;5055364;28;20266;-69
2024/01/11 09:39:51;;;;;;;63.73;35.47;;;;;;;6.70;39.20;98537.75;5042568;28;20199;-69
2024/01/11 09:42:18;;;;;;;65.30;35.07;;;;;;;6.95;38.50;98536.22;5048248;28;20266;-69
2024/01/11 09:44:43;;;;;;;58.20;34.00;;;;;;;7.15;38.30;98522.78;5042158;28;20294;-68
2024/01/11 09:47:10;;;;;;;55.20;34.00;;;;;;;7.12;37.62;98522.97;5047452;28;20516;-69
2024/01/11 09:49:37;;;;;;;58.97;34.77;;;;;;;7.32;36.95;98539.94;5055656;28;20265;-68
2024/01/11 09:52:05;;;;;;;58.37;36.03;;;;;;;7.49;37.68;98541.47;5035187;28;20842;-70
2024/01/11 09:54:30;;;;;;;59.90;34.53;;;;;;;7.48;36.99;98539.78;5055104;28;20456;-70
2024/01/11 09:56:58;;;;;;;57.20;34.87;;;;;;;7.30;37.12;98538.38;5047466;28;20422;-69
2024/01/11 09:59:23;;;;;;;58.57;34.93;;;;;;;7.48;37.37;98537.19;5040675;28;20214;-69
2024/01/11 10:01:49;;;;;;;56.83;35.27;;;;;;;7.82;36.53;98534.13;5042601;28;20802;-67
2024/01/11 10:04:16;;;;;;;55.17;33.73;;;;;;;8.26;36.14;98532.88;5050483;28;20265;-68
2024/01/11 10:06:41;;;;;;;56.10;34.00;;;;;;;8.43;36.31;98536.09;5041701;28;20189;-68
2024/01/11 10:09:07;;;;;;;66.83;35.70;;;;;;;8.44;35.93;98528.16;5056149;28;20429;-67
2024/01/11 10:11:34;;;;;;;57.53;34.90;;;;;;;8.29;35.22;98530.06;5062149;28;20233;-68
2024/01/11 10:14:00;;;;;;;61.13;34.50;;;;;;;8.26;35.71;98532.06;5048990;28;20266;-69
2024/01/11 10:16:27;;;;;;;61.50;35.00;;;;;;;8.07;35.36;98525.47;5047386;28;20544;-69
2024/01/11 10:18:57;;;;;;;60.07;34.17;;;;;;;8.46;35.11;98521.06;5050453;28;20429;-70
2024/01/11 10:21:23;;;;;;;60.07;34.57;;;;;;;8.48;34.93;98520.13;5045273;28;20446;-70
2024/01/11 10:23:49;;;;;;;53.47;33.50;;;;;;;8.37;34.38;98500.78;5049624;28;20491;-70
2024/01/11 10:26:18;;;;;;;62.90;34.57;;;;;;;8.35;35.00;98497.44;5050519;28;20487;-67
2024/01/11 10:28:47;;;;;;;61.97;34.87;;;;;;;8.72;34.54;98494.91;5046806;28;20798;-69
2024/01/11 10:31:14;;;;;;;57.67;34.70;;;;;;;8.64;34.23;98492.00;5047246;28;20406;-69
2024/01/11 10:33:40;;;;;;;59.40;33.70;;;;;;;8.74;34.61;98492.19;5053578;28;20413;-68
2024/01/11 10:36:07;;;;;;;60.30;34.43;;;;;;;8.88;34.18;98483.34;5044977;28;20450;-69
2024/01/11 10:38:35;;;;;;;54.27;33.90;;;;;;;9.12;33.67;98485.97;5045883;28;20421;-69
2024/01/11 10:41:04;;;;;;;57.17;34.47;;;;;;;9.29;33.88;98484.75;5050753;28;20453;-69
2024/01/11 10:43:31;;;;;;;60.03;36.70;;;;;;;9.31;33.77;98482.84;5059308;28;20833;-69
2024/01/11 10:45:59;;;;;;;59.43;35.87;;;;;;;9.35;33.25;98484.28;5058636;28;20448;-68
2024/01/11 10:48:25;;;;;;;63.20;36.43;;;;;;;9.37;33.35;98490.25;5055198;28;20507;-70
2024/01/11 10:51:00;;;;;;;55.47;34.93;;;;;;;9.45;33.33;98488.84;5063894;28;20511;-68
2024/01/11 10:53:45;;;;;;;56.50;33.50;;;;;;;9.40;32.83;98488.34;5047887;28;20431;-68
2024/01/11 10:56:14;;;;;;;54.20;34.57;;;;;;;9.70;33.40;98489.63;5055269;28;20468;-68
2024/01/11 10:58:44;;;;;;;55.13;34.03;;;;;;;9.64;32.80;98499.59;5050661;28;21145;-68
2024/01/11 11:01:13;;;;;;;53.67;33.57;;;;;;;10.02;32.51;98504.69;5043610;28;20481;-67
2024/01/11 11:03:38;;;;;;;53.87;33.60;;;;;;;10.14;32.46;98509.00;5042540;28;20422;-69
2024/01/11 11:06:06;;;;;;;56.83;34.50;;;;;;;9.83;32.56;98500.81;5055813;28;20442;-70
2024/01/11 11:08:32;;;;;;;56.60;34.50;;;;;;;10.05;32.27;98494.81;5045013;28;20187;-69
2024/01/11 11:10:59;;;;;;;59.73;34.97;;;;;;;10.34;32.12;98496.13;5066649;28;20412;-69
2024/01/11 11:13:25;;;;;;;51.70;33.20;;;;;;;10.49;31.87;98492.34;5054238;28;20265;-70
2024/01/11 11:15:51;;;;;;;62.93;36.53;;;;;;;11.09;31.12;98488.53;5050108;28;20865;-68